Time;durP1;ratioP1;P1;durP2;ratioP2;P2;SDS_P1;SDS_P2;PMS_P1;PMS_P2;Temp;Humidity;BMP_temperature;BMP_pressure;BME280_temperature;BME280_humidity;BME280_pressure;Samples;Min_cycle;Max_cycle;Signal;HPM_P1;HPM_P2
2023/06/21 00:01:29;;;;;;;18.55;13.93;;;;;;;-144.47;76.02;52681.31;5021450;23;20584;-65
2023/06/21 00:03:57;;;;;;;19.88;14.68;;;;;;;-144.47;77.54;52669.41;5008464;28;20095;-66
2023/06/21 00:06:23;;;;;;;19.48;14.13;;;;;;;-144.47;81.34;52661.44;5010807;28;20018;-66
2023/06/21 00:08:48;;;;;;;18.83;13.90;;;;;;;-144.47;82.74;52605.84;5010849;28;20488;-67
2023/06/21 00:11:14;;;;;;;20.38;13.23;;;;;;;-144.47;86.85;52637.63;5010449;28;20095;-66
2023/06/21 00:13:39;;;;;;;31.60;13.23;;;;;;;-144.47;96.30;52659.47;5010772;28;20357;-66
2023/06/21 00:16:05;;;;;;;22.98;14.18;;;;;;;-144.47;100.00;52611.81;5010209;28;20014;-65
2023/06/21 00:18:30;;;;;;;19.52;12.73;;;;;;;-144.47;100.00;52643.56;5010504;28;20101;-67
2023/06/21 00:20:59;;;;;;;43.22;13.85;;;;;;;-144.47;100.00;52627.69;5011187;28;20020;-66
2023/06/21 00:23:25;;;;;;;21.45;11.63;;;;;;;-144.47;100.00;52639.59;5002996;28;20022;-67
2023/06/21 00:25:50;;;;;;;21.73;13.23;;;;;;;-144.47;100.00;52649.53;5010798;28;20028;-68
2023/06/21 00:28:16;;;;;;;24.00;12.48;;;;;;;-144.47;100.00;52621.72;5011246;28;20049;-67
2023/06/21 00:30:41;;;;;;;19.80;12.60;;;;;;;-144.47;100.00;52629.69;5010706;28;20039;-65
2023/06/21 00:33:06;;;;;;;25.13;12.82;;;;;;;-144.47;100.00;52645.56;5010498;28;20030;-63
2023/06/21 00:35:32;;;;;;;17.70;11.15;;;;;;;-144.47;100.00;52637.63;5010314;28;20155;-65
2023/06/21 00:37:57;;;;;;;18.83;11.82;;;;;;;-144.47;100.00;52619.75;5003373;28;20029;-66
2023/06/21 00:40:25;;;;;;;19.63;11.88;;;;;;;-144.47;100.00;52633.66;5010470;28;20006;-67
2023/06/21 00:42:52;;;;;;;18.27;12.25;;;;;;;-144.47;100.00;52667.41;5009100;28;20024;-65
2023/06/21 00:45:17;;;;;;;20.75;11.82;;;;;;;-144.47;100.00;52645.56;5009601;28;20026;-66
2023/06/21 00:47:45;;;;;;;21.23;11.68;;;;;;;-144.47;100.00;52629.69;5009795;28;20017;-65
2023/06/21 00:50:12;;;;;;;23.25;12.30;;;;;;;-144.47;100.00;52651.53;5009900;28;20096;-65
2023/06/21 00:52:39;;;;;;;24.77;11.48;;;;;;;-144.47;100.00;52647.56;5010138;28;20075;-66
2023/06/21 00:55:05;;;;;;;24.40;12.55;;;;;;;-144.47;100.00;52635.63;5009824;28;20025;-65
2023/06/21 00:57:31;;;;;;;18.08;12.15;;;;;;;-144.47;100.00;52673.38;5009510;28;20022;-65
2023/06/21 00:59:57;;;;;;;14.35;9.75;;;;;;;-144.47;100.00;52649.53;5008882;28;20013;-66
2023/06/21 01:02:22;;;;;;;15.48;9.30;;;;;;;-144.47;100.00;52633.66;5008606;28;20053;-66
2023/06/21 01:04:49;;;;;;;16.33;8.98;;;;;;;-144.47;100.00;52639.59;5009248;28;20046;-64
2023/06/21 01:07:32;;;;;;;16.55;9.05;;;;;;;-144.47;100.00;52655.50;5009317;28;20056;-65
2023/06/21 01:10:16;;;;;;;16.70;9.50;;;;;;;-144.47;100.00;52649.53;5008322;28;20021;-65
2023/06/21 01:12:57;;;;;;;16.55;8.73;;;;;;;-144.47;100.00;52633.66;5009864;28;20026;-66
2023/06/21 01:15:26;;;;;;;14.95;8.88;;;;;;;-144.47;100.00;52659.47;5001860;28;20027;-67
2023/06/21 01:17:53;;;;;;;15.00;8.38;;;;;;;-144.47;100.00;52649.53;5002420;28;20594;-67
2023/06/21 01:20:28;;;;;;;14.70;9.50;;;;;;;-144.47;100.00;52641.59;5008792;28;20072;-68
2023/06/21 01:23:23;;;;;;;20.83;11.18;;;;;;;-144.47;100.00;52645.56;5001286;28;20025;-66
2023/06/21 01:26:07;;;;;;;21.42;11.13;;;;;;;-144.47;100.00;52679.31;5009495;28;20088;-67
2023/06/21 01:29:00;;;;;;;15.85;11.27;;;;;;;-144.47;100.00;52651.53;4997328;28;20009;-66
2023/06/21 01:31:27;;;;;;;22.60;11.55;;;;;;;-144.47;100.00;52651.53;5009414;28;20021;-67
2023/06/21 01:33:54;;;;;;;20.85;11.65;;;;;;;-144.47;100.00;52639.59;5009185;28;20121;-65
2023/06/21 01:36:21;;;;;;;21.60;12.15;;;;;;;-144.47;100.00;52649.53;5009423;28;20052;-66
2023/06/21 01:38:47;;;;;;;18.48;11.30;;;;;;;-144.47;100.00;52651.53;5002300;28;20656;-67
2023/06/21 01:41:12;;;;;;;21.58;12.13;;;;;;;-144.47;100.00;52665.44;5009200;28;20022;-66
2023/06/21 01:43:38;;;;;;;22.63;12.80;;;;;;;-144.47;100.00;52647.56;5009065;28;20022;-65
2023/06/21 01:46:10;;;;;;;27.15;13.10;;;;;;;-144.47;100.00;52643.56;5008967;28;20540;-66
2023/06/21 01:48:37;;;;;;;27.42;12.90;;;;;;;-144.47;100.00;52667.41;5009082;28;20221;-66
2023/06/21 01:51:04;;;;;;;21.83;12.18;;;;;;;-144.47;100.00;52669.41;5007669;28;20021;-67
2023/06/21 01:53:33;;;;;;;25.00;11.57;;;;;;;-144.47;100.00;52635.63;5008925;28;20029;-67
2023/06/21 01:56:01;;;;;;;17.75;11.18;;;;;;;-144.47;100.00;52637.63;5009304;28;20101;-65
2023/06/21 01:58:28;;;;;;;18.13;11.82;;;;;;;-144.47;100.00;52651.53;5007736;28;20072;-69
2023/06/21 02:00:54;;;;;;;15.93;10.95;;;;;;;-144.47;100.00;52627.69;5007702;28;20442;-67
2023/06/21 02:03:21;;;;;;;21.20;11.88;;;;;;;-144.47;100.00;52627.69;5009103;28;20526;-64
2023/06/21 02:05:47;;;;;;;18.40;11.93;;;;;;;-144.47;100.00;52649.53;5008978;28;20022;-66
2023/06/21 02:08:15;;;;;;;18.98;11.68;;;;;;;-144.47;100.00;52641.59;5008971;28;20091;-68
2023/06/21 02:10:42;;;;;;;19.88;11.88;;;;;;;-144.47;100.00;52643.56;5011169;28;20021;-67
2023/06/21 02:13:07;;;;;;;19.02;11.05;;;;;;;-144.47;100.00;52635.63;5012189;28;20038;-63
2023/06/21 02:15:33;;;;;;;16.75;10.43;;;;;;;-144.47;100.00;52637.63;5012026;28;20056;-67
2023/06/21 02:17:58;;;;;;;21.38;10.93;;;;;;;-144.47;100.00;52657.47;5011974;28;20098;-66
2023/06/21 02:20:23;;;;;;;23.80;11.80;;;;;;;-144.47;100.00;52651.53;5012553;28;20025;-67
2023/06/21 02:22:49;;;;;;;17.50;11.77;;;;;;;-144.47;100.00;52643.56;5004017;28;20022;-64
2023/06/21 02:25:16;;;;;;;19.63;12.10;;;;;;;-144.47;100.00;52633.66;5012169;28;20026;-67
2023/06/21 02:27:41;;;;;;;20.02;12.10;;;;;;;-144.47;100.00;52635.63;5012056;28;20029;-66
2023/06/21 02:30:08;;;;;;;23.50;11.57;;;;;;;-144.47;100.00;52643.56;5012089;28;20034;-62
2023/06/21 02:32:34;;;;;;;14.60;10.77;;;;;;;-144.47;100.00;52643.56;5012353;28;20048;-66
2023/06/21 02:34:59;;;;;;;21.80;10.93;;;;;;;-144.47;100.00;52655.50;5012012;28;20033;-62
2023/06/21 02:37:28;;;;;;;14.65;10.55;;;;;;;-144.47;100.00;52649.53;5012206;28;20102;-65
2023/06/21 02:39:54;;;;;;;18.75;10.38;;;;;;;-144.47;100.00;52645.56;5004577;28;20028;-66
2023/06/21 02:42:19;;;;;;;25.50;10.88;;;;;;;-144.47;100.00;52661.44;5012150;28;20084;-62
2023/06/21 02:44:44;;;;;;;15.98;10.85;;;;;;;-144.47;100.00;52653.50;5011815;28;20483;-65
2023/06/21 02:47:10;;;;;;;20.30;10.98;;;;;;;-144.47;100.00;52621.72;5012132;28;20054;-67
2023/06/21 02:49:36;;;;;;;16.17;10.82;;;;;;;-144.47;100.00;52663.44;5012059;28;20014;-66
2023/06/21 02:52:05;;;;;;;22.02;11.13;;;;;;;-144.47;100.00;52649.53;5011407;28;20037;-65
2023/06/21 02:54:30;;;;;;;;;;;;;;;-144.47;100.00;52649.53;5012768;28;20546;-67
2023/06/21 02:56:56;;;;;;;21.08;10.80;;;;;;;-144.47;100.00;52655.50;5011889;28;19940;-65
2023/06/21 02:59:22;;;;;;;16.55;11.45;;;;;;;-144.47;100.00;52647.56;5011848;28;20255;-66
2023/06/21 03:01:48;;;;;;;19.58;12.10;;;;;;;-144.47;100.00;52655.50;5011538;28;20021;-66
2023/06/21 03:04:18;;;;;;;19.83;12.35;;;;;;;-144.47;100.00;52661.44;5011248;28;20025;-67
2023/06/21 03:06:44;;;;;;;19.38;12.32;;;;;;;-144.47;100.00;52641.59;5011674;28;20018;-66
2023/06/21 03:09:10;;;;;;;22.38;12.07;;;;;;;-144.47;100.00;52643.56;5011340;28;20018;-64
2023/06/21 03:11:36;;;;;;;24.92;13.90;;;;;;;-144.47;100.00;52643.56;5010937;28;20049;-68
2023/06/21 03:14:01;;;;;;;22.80;13.55;;;;;;;-144.47;100.00;52641.59;5011051;28;20033;-66
2023/06/21 03:16:26;;;;;;;21.65;13.27;;;;;;;-144.47;100.00;52659.47;5003553;28;20475;-66
2023/06/21 03:18:52;;;;;;;16.35;11.80;;;;;;;-144.47;100.00;52669.41;5009481;28;20070;-68
2023/06/21 03:21:17;;;;;;;20.25;12.93;;;;;;;-144.47;100.00;52643.56;5010143;28;20018;-65
2023/06/21 03:23:43;;;;;;;23.20;13.05;;;;;;;-144.47;100.00;52653.50;5003142;28;20025;-66
2023/06/21 03:26:09;;;;;;;22.88;14.05;;;;;;;-144.47;100.00;52651.53;5011324;28;20041;-63
2023/06/21 03:28:34;;;;;;;27.15;14.27;;;;;;;-144.47;100.00;52667.41;5011122;28;20468;-68
2023/06/21 03:31:00;;;;;;;21.67;14.20;;;;;;;-144.47;100.00;52653.50;5010793;28;20402;-65
2023/06/21 03:33:25;;;;;;;20.85;13.35;;;;;;;-144.47;100.00;52679.31;5010780;28;20030;-67
2023/06/21 03:35:51;;;;;;;24.13;15.00;;;;;;;-144.47;100.00;52641.59;5010899;28;20484;-67
2023/06/21 03:38:17;;;;;;;21.83;14.77;;;;;;;-144.47;100.00;52637.63;5004062;28;20380;-66
2023/06/21 03:40:43;;;;;;;28.80;15.77;;;;;;;-144.47;100.00;52651.53;5010381;28;20018;-68
2023/06/21 03:43:09;;;;;;;25.55;14.60;;;;;;;-144.47;100.00;52653.50;5010971;28;20100;-67
2023/06/21 03:45:34;;;;;;;21.13;14.55;;;;;;;-144.47;100.00;52665.44;5010673;28;20022;-67
2023/06/21 03:48:04;;;;;;;25.23;16.67;;;;;;;-144.47;100.00;52673.38;5011358;28;20025;-66
2023/06/21 03:50:30;;;;;;;23.83;15.98;;;;;;;-144.47;100.00;52665.44;5010522;28;20049;-63
2023/06/21 03:52:55;;;;;;;29.58;15.98;;;;;;;-144.47;100.00;52635.63;5009917;28;20682;-66
2023/06/21 03:55:20;;;;;;;21.67;15.40;;;;;;;-144.47;100.00;52649.53;5010549;28;20428;-66
2023/06/21 03:57:46;;;;;;;28.17;18.10;;;;;;;-144.47;100.00;52637.63;5010921;28;20032;-65
2023/06/21 04:00:12;;;;;;;24.65;15.55;;;;;;;-144.47;100.00;52645.56;5008657;28;20049;-65
2023/06/21 04:02:38;;;;;;;22.05;14.80;;;;;;;-144.47;100.00;52649.53;5010765;28;20513;-67
2023/06/21 04:05:04;;;;;;;25.30;15.07;;;;;;;-144.47;100.00;52663.44;5008165;28;20049;-66
2023/06/21 04:07:30;;;;;;;30.85;14.60;;;;;;;-144.47;100.00;52659.47;5007473;28;20022;-66
2023/06/21 04:09:56;;;;;;;21.92;14.65;;;;;;;-144.47;100.00;52671.38;5009442;28;20029;-67
2023/06/21 04:12:21;;;;;;;19.85;14.68;;;;;;;-144.47;100.00;52653.50;5010984;28;20022;-68
2023/06/21 04:14:46;;;;;;;23.27;14.45;;;;;;;-144.47;100.00;52663.44;5009906;28;20093;-67
2023/06/21 04:17:12;;;;;;;24.55;14.10;;;;;;;-144.47;100.00;52651.53;5004739;28;20073;-67
2023/06/21 04:19:37;;;;;;;24.92;13.75;;;;;;;-144.47;100.00;52657.47;5005954;28;21266;-68
2023/06/21 04:22:03;;;;;;;37.38;14.25;;;;;;;-144.47;100.00;52653.50;5009347;28;20098;-67
2023/06/21 04:24:28;;;;;;;27.40;14.98;;;;;;;-144.47;100.00;52681.31;5007325;28;20037;-65
2023/06/21 04:26:56;;;;;;;30.77;15.18;;;;;;;-144.47;100.00;52649.53;5009145;28;20022;-65
2023/06/21 04:29:22;;;;;;;24.23;14.80;;;;;;;-144.47;100.00;52665.44;5004557;28;20463;-66
2023/06/21 04:31:51;;;;;;;24.38;13.55;;;;;;;-144.47;100.00;52645.56;5008750;28;20037;-70
2023/06/21 04:34:17;;;;;;;27.98;13.10;;;;;;;-144.47;100.00;52641.59;5007150;28;20105;-67
2023/06/21 04:36:45;;;;;;;22.85;11.35;;;;;;;-144.47;100.00;52647.56;5007155;28;20148;-69
2023/06/21 04:39:10;;;;;;;15.75;9.82;;;;;;;-144.47;100.00;52657.47;5007574;28;20025;-69
2023/06/21 04:41:35;;;;;;;22.98;11.32;;;;;;;-144.47;100.00;52647.56;5009434;28;20360;-71
2023/06/21 04:44:01;;;;;;;16.98;10.68;;;;;;;-144.47;100.00;52639.59;5008946;28;20026;-71
2023/06/21 04:46:27;;;;;;;23.17;10.30;;;;;;;-144.47;100.00;52661.44;5008885;28;20044;-68
2023/06/21 04:48:53;;;;;;;24.33;10.15;;;;;;;-144.47;100.00;52667.41;5009564;28;20047;-69
2023/06/21 04:51:18;;;;;;;16.90;10.30;;;;;;;-144.47;100.00;52657.47;5009430;28;20386;-67
2023/06/21 04:53:45;;;;;;;18.77;10.32;;;;;;;-144.47;100.00;52611.81;5009143;28;20517;-69
2023/06/21 04:56:14;;;;;;;18.52;10.52;;;;;;;-144.47;100.00;52653.50;5009294;28;20049;-71
2023/06/21 04:58:40;;;;;;;18.00;10.18;;;;;;;-144.47;100.00;52673.38;5007958;28;20038;-66
2023/06/21 05:01:08;;;;;;;18.90;9.38;;;;;;;-144.47;100.00;52631.66;5002958;28;20018;-70
2023/06/21 05:03:34;;;;;;;16.23;9.73;;;;;;;-144.47;100.00;52657.47;5006656;28;20064;-69
2023/06/21 05:06:00;;;;;;;26.05;10.05;;;;;;;-144.47;100.00;52657.47;5007275;28;20288;-69
2023/06/21 05:08:25;;;;;;;25.35;8.77;;;;;;;-144.47;100.00;52649.53;5010188;28;20029;-70
2023/06/21 05:10:51;;;;;;;15.38;8.98;;;;;;;-144.47;100.00;52647.56;5009252;28;20371;-70
2023/06/21 05:13:16;;;;;;;12.77;7.57;;;;;;;-144.47;100.00;52649.53;5010928;28;20040;-64
2023/06/21 05:15:42;;;;;;;20.90;8.02;;;;;;;-144.47;100.00;52641.59;5007537;28;20173;-69
2023/06/21 05:18:07;;;;;;;14.30;7.30;;;;;;;-144.47;100.00;52661.44;5008894;28;20117;-70
2023/06/21 05:20:33;;;;;;;14.52;7.40;;;;;;;-144.47;100.00;52629.69;5009512;28;20029;-68
2023/06/21 05:22:58;;;;;;;13.30;6.80;;;;;;;-144.47;100.00;52675.34;5001648;28;20102;-66
2023/06/21 05:25:23;;;;;;;20.83;7.60;;;;;;;-144.47;100.00;52673.38;4999448;28;20033;-72
2023/06/21 05:27:49;;;;;;;18.30;7.80;;;;;;;-144.47;100.00;52665.44;5007667;28;20025;-70
2023/06/21 05:30:14;;;;;;;15.63;7.25;;;;;;;-144.47;100.00;52667.41;4999045;28;20023;-70
2023/06/21 05:32:40;;;;;;;19.63;7.45;;;;;;;-144.47;100.00;52657.47;5010534;28;20087;-71
2023/06/21 05:35:05;;;;;;;14.10;7.07;;;;;;;-144.47;100.00;52669.41;5001549;28;20030;-67
2023/06/21 05:37:31;;;;;;;15.65;7.18;;;;;;;-144.47;100.00;52673.38;5003574;28;20018;-70
2023/06/21 05:40:00;;;;;;;16.67;6.78;;;;;;;-144.47;100.00;52665.44;5010169;28;20495;-69
2023/06/21 05:42:26;;;;;;;17.05;6.82;;;;;;;-144.47;100.00;52643.56;5009708;28;20025;-66
2023/06/21 05:44:51;;;;;;;15.13;6.47;;;;;;;-144.47;100.00;52651.53;5010596;28;20021;-66
2023/06/21 05:47:17;;;;;;;13.50;6.07;;;;;;;-144.47;100.00;52665.44;5016923;28;20436;-69
2023/06/21 05:49:42;;;;;;;11.63;5.57;;;;;;;-144.47;100.00;52661.44;5012947;28;20037;-70
2023/06/21 05:52:07;;;;;;;17.30;6.68;;;;;;;-144.47;99.52;52647.56;5013379;28;20112;-68
2023/06/21 05:54:33;;;;;;;18.38;6.70;;;;;;;-144.47;98.90;52671.38;5013679;28;20014;-70
2023/06/21 05:56:58;;;;;;;17.20;7.00;;;;;;;-144.47;98.70;52663.44;5012798;28;20028;-70
2023/06/21 05:59:23;;;;;;;10.63;6.18;;;;;;;-144.47;96.60;52655.50;5012890;28;20076;-69
2023/06/21 06:01:52;;;;;;;15.32;6.30;;;;;;;-144.47;96.76;52671.38;5027224;23;20487;-74
2023/06/21 06:04:17;;;;;;;15.45;6.30;;;;;;;-144.47;96.37;52673.38;5011998;28;20033;-76
2023/06/21 06:06:42;;;;;;;14.43;7.00;;;;;;;-144.47;96.49;52683.31;5012741;28;20026;-74
2023/06/21 06:09:09;;;;;;;13.65;6.75;;;;;;;-144.47;96.20;52659.47;5014614;28;20040;-73
2023/06/21 06:11:38;;;;;;;18.65;7.05;;;;;;;-144.47;98.01;52675.34;5012820;28;20018;-72
2023/06/21 06:14:04;;;;;;;12.15;6.35;;;;;;;-144.47;98.85;52661.44;5013952;28;20083;-72
2023/06/21 06:16:31;;;;;;;11.38;6.88;;;;;;;-144.47;99.24;52683.31;5012354;28;20466;-71
2023/06/21 06:18:57;;;;;;;16.17;7.00;;;;;;;-144.47;99.27;52663.44;5013144;28;20029;-71
2023/06/21 06:21:22;;;;;;;17.00;6.95;;;;;;;-144.47;99.45;52687.28;5011639;28;20090;-75
2023/06/21 06:23:50;;;;;;;18.95;6.80;;;;;;;-144.47;99.81;52677.34;5006604;28;20064;-72
2023/06/21 06:26:17;;;;;;;14.75;7.70;;;;;;;-144.47;99.97;52689.25;5014463;28;20072;-74
2023/06/21 06:28:43;;;;;;;14.57;6.97;;;;;;;-144.47;99.75;52665.44;5008735;28;20028;-72
2023/06/21 06:31:08;;;;;;;15.30;7.50;;;;;;;-144.47;99.17;52675.34;5013146;28;20014;-73
2023/06/21 06:33:33;;;;;;;16.13;6.57;;;;;;;-144.47;99.00;52689.25;5012281;28;20478;-73
2023/06/21 06:35:59;;;;;;;20.70;7.35;;;;;;;-144.47;97.37;52695.22;5011606;28;20116;-74
2023/06/21 06:38:28;;;;;;;13.20;7.20;;;;;;;-144.47;95.95;52707.13;5011079;28;20510;-71
2023/06/21 06:40:53;;;;;;;20.10;8.48;;;;;;;-144.47;94.32;52681.31;5012049;28;20010;-73
2023/06/21 06:43:19;;;;;;;21.77;8.30;;;;;;;-144.47;93.93;52689.25;5004082;28;20017;-73
2023/06/21 06:45:44;;;;;;;10.82;6.65;;;;;;;-144.47;92.87;52683.31;5009779;28;20045;-73
2023/06/21 06:48:10;;;;;;;13.10;8.07;;;;;;;-144.47;90.80;52687.28;5012837;28;20025;-72
2023/06/21 06:50:38;;;;;;;21.15;7.70;;;;;;;-144.47;90.65;52697.19;5011683;28;20109;-74
2023/06/21 06:53:05;;;;;;;13.77;7.35;;;;;;;-144.47;88.98;52673.38;5012550;28;20395;-76
2023/06/21 06:55:31;;;;;;;16.88;7.60;;;;;;;-144.47;88.85;52713.09;5009327;28;20026;-72
2023/06/21 06:57:58;;;;;;;12.90;7.10;;;;;;;-144.47;87.91;52667.41;5011726;28;20462;-70
2023/06/21 07:00:23;;;;;;;15.43;6.88;;;;;;;-144.47;87.85;52677.34;5007897;28;20426;-72
2023/06/21 07:02:49;;;;;;;13.48;6.90;;;;;;;-144.47;86.48;52689.25;5008536;28;20037;-73
2023/06/21 07:05:15;;;;;;;12.90;6.43;;;;;;;-144.47;85.01;52679.31;5004132;28;20029;-74
2023/06/21 07:07:40;;;;;;;13.50;6.25;;;;;;;-144.47;84.11;52695.22;5010720;28;20017;-75
2023/06/21 07:10:06;;;;;;;11.60;6.95;;;;;;;-144.47;85.55;52683.31;5003278;28;20042;-72
2023/06/21 07:12:31;;;;;;;14.00;7.30;;;;;;;-144.47;84.78;52717.06;5009064;28;20030;-74
2023/06/21 07:14:56;;;;;;;16.00;7.00;;;;;;;-144.47;84.78;52679.31;5007188;28;20502;-73
2023/06/21 07:17:23;;;;;;;17.02;6.78;;;;;;;-144.47;83.69;52691.25;5008829;28;20112;-73
2023/06/21 07:19:49;;;;;;;12.30;7.07;;;;;;;-144.47;84.36;52705.16;5011631;28;20028;-74
2023/06/21 07:22:14;;;;;;;12.15;7.20;;;;;;;-144.47;83.70;52671.38;5011819;28;20021;-73
2023/06/21 07:24:40;;;;;;;12.68;7.40;;;;;;;-144.47;84.08;52699.19;5012058;28;20017;-70
2023/06/21 07:27:05;;;;;;;17.73;6.68;;;;;;;-144.47;84.24;52717.06;5011224;28;20026;-74
2023/06/21 07:29:30;;;;;;;13.20;7.38;;;;;;;-144.47;83.34;52689.25;5012140;28;20053;-74
2023/06/21 07:31:56;;;;;;;13.32;7.38;;;;;;;-144.47;83.66;52691.25;5012211;28;20478;-75
2023/06/21 07:34:21;;;;;;;11.35;7.50;;;;;;;-144.47;83.51;52709.13;5010893;28;20026;-74
2023/06/21 07:36:46;;;;;;;12.63;6.85;;;;;;;-144.47;83.22;52699.19;5009950;28;20026;-72
2023/06/21 07:39:13;;;;;;;13.65;7.55;;;;;;;-144.47;83.96;52709.13;5011427;28;20455;-73
2023/06/21 07:41:38;;;;;;;12.90;7.82;;;;;;;-144.47;84.61;52711.09;5011846;28;20152;-71
2023/06/21 07:44:04;;;;;;;15.60;7.45;;;;;;;-144.47;84.95;52689.25;5011031;28;20044;-75
2023/06/21 07:46:29;;;;;;;13.57;6.68;;;;;;;-144.47;83.67;52675.34;5010570;28;20022;-70
2023/06/21 07:48:54;;;;;;;17.05;8.40;;;;;;;-144.47;83.28;52693.22;5011850;28;20075;-69
2023/06/21 07:51:20;;;;;;;15.32;6.90;;;;;;;-144.47;82.70;52705.16;5011360;28;20032;-73
2023/06/21 07:53:45;;;;;;;13.13;7.63;;;;;;;-144.47;83.14;52709.13;5010488;28;20718;-71
2023/06/21 07:56:14;;;;;;;16.30;8.43;;;;;;;-144.47;83.54;52713.09;5010544;28;20115;-72
2023/06/21 07:58:41;;;;;;;15.43;7.88;;;;;;;-144.47;82.84;52691.25;5010333;28;20458;-73
2023/06/21 08:01:07;;;;;;;12.05;7.22;;;;;;;-144.47;82.47;52687.28;5010234;28;20021;-75
2023/06/21 08:03:32;;;;;;;17.70;8.27;;;;;;;-144.47;82.47;52717.06;5010295;28;20468;-72
2023/06/21 08:05:58;;;;;;;13.27;7.07;;;;;;;-144.47;79.35;52709.13;5011099;28;20057;-71
2023/06/21 08:08:23;;;;;;;14.20;9.32;;;;;;;-144.47;78.20;52703.16;5010418;28;20030;-72
2023/06/21 08:10:48;;;;;;;13.90;7.32;;;;;;;-144.47;78.93;52721.03;5005811;28;20017;-69
2023/06/21 08:13:22;;;;;;;12.85;7.03;;;;;;;-144.47;79.39;52728.97;5010423;28;20018;-70
2023/06/21 08:15:47;;;;;;;12.43;7.18;;;;;;;-144.47;79.80;52705.16;5010200;28;20025;-73
2023/06/21 08:18:13;;;;;;;13.65;6.78;;;;;;;-144.47;77.08;52734.94;5010578;28;20455;-71
2023/06/21 08:20:40;;;;;;;12.48;7.18;;;;;;;-144.47;76.54;52715.06;5010166;28;20033;-73
2023/06/21 08:23:06;;;;;;;12.73;7.60;;;;;;;-144.47;77.31;52740.91;5010118;28;20045;-74
2023/06/21 08:25:31;;;;;;;12.82;7.20;;;;;;;-144.47;76.92;52721.03;5010031;28;20103;-72
2023/06/21 08:27:57;;;;;;;10.52;6.97;;;;;;;-144.47;75.93;52734.94;5009873;28;20029;-75
2023/06/21 08:30:22;;;;;;;12.55;7.45;;;;;;;-144.47;75.61;52703.16;5009676;28;20589;-73
2023/06/21 08:32:47;;;;;;;10.82;7.10;;;;;;;-144.47;75.41;52719.06;5010293;28;20029;-73
2023/06/21 08:35:13;;;;;;;11.95;7.15;;;;;;;-144.47;74.16;52728.97;5009459;28;20418;-72
2023/06/21 08:37:39;;;;;;;11.90;7.18;;;;;;;-144.47;74.91;52725.00;5002482;28;20022;-72
2023/06/21 08:40:07;;;;;;;12.00;6.88;;;;;;;-144.47;75.16;52713.09;5010020;28;20018;-72
2023/06/21 08:42:32;;;;;;;11.73;7.47;;;;;;;-144.47;73.80;52730.97;5009956;28;20025;-72
2023/06/21 08:44:58;;;;;;;13.35;7.90;;;;;;;-144.47;73.31;52734.94;5009478;28;20026;-73
2023/06/21 08:47:28;;;;;;;9.85;6.60;;;;;;;-144.47;72.62;52717.06;5009993;28;20017;-72
2023/06/21 08:49:57;;;;;;;14.25;7.18;;;;;;;-144.47;70.88;52732.94;5009877;28;20458;-75
2023/06/21 08:52:25;;;;;;;10.07;7.18;;;;;;;-144.47;70.57;52723.03;5009508;28;20042;-73
2023/06/21 08:54:59;;;;;;;17.02;6.82;;;;;;;-144.47;69.29;52736.94;5009209;28;20380;-69
2023/06/21 08:57:28;;;;;;;12.43;7.68;;;;;;;-144.47;69.12;52730.97;5010395;28;20029;-72
2023/06/21 08:59:59;;;;;;;12.02;6.90;;;;;;;-144.47;68.94;52768.69;5010192;28;20016;-74
2023/06/21 09:02:46;;;;;;;10.30;6.88;;;;;;;-144.47;65.82;52725.00;5010765;28;20052;-73
2023/06/21 09:05:27;;;;;;;13.48;6.70;;;;;;;-144.47;64.88;52744.88;5009537;28;20018;-72
2023/06/21 09:07:53;;;;;;;16.42;6.75;;;;;;;-144.47;64.71;52750.81;5009716;28;20722;-72
2023/06/21 09:10:21;;;;;;;9.63;6.50;;;;;;;-144.47;63.30;52768.69;5005650;28;20014;-70
2023/06/21 09:12:48;;;;;;;11.02;5.60;;;;;;;-144.47;64.20;52754.81;5015706;28;20034;-73
2023/06/21 09:15:14;;;;;;;12.00;6.32;;;;;;;-144.47;62.70;52760.75;5009469;28;20018;-72
2023/06/21 09:17:42;;;;;;;11.27;5.28;;;;;;;-144.47;60.54;52766.72;5009586;28;20030;-73
2023/06/21 09:20:09;;;;;;;11.23;6.10;;;;;;;-144.47;61.71;52784.59;5011248;28;20162;-70
2023/06/21 09:22:35;;;;;;;11.98;6.05;;;;;;;-144.47;61.72;52752.81;5013703;28;20026;-73
2023/06/21 09:25:00;;;;;;;12.77;5.75;;;;;;;-144.47;61.09;52784.59;5013009;28;20018;-72
2023/06/21 09:27:26;;;;;;;12.40;6.30;;;;;;;-144.47;61.81;52764.72;5013705;28;20017;-70
2023/06/21 09:29:51;;;;;;;9.95;6.22;;;;;;;-144.47;60.73;52740.91;5012987;28;20648;-73
2023/06/21 09:32:17;;;;;;;11.85;6.60;;;;;;;-144.47;62.38;52786.56;5011966;28;20026;-72
2023/06/21 09:34:42;;;;;;;10.55;5.75;;;;;;;-144.47;63.04;52748.84;5012669;28;20025;-73
2023/06/21 09:37:08;;;;;;;10.05;5.90;;;;;;;-144.47;62.81;52756.78;5008254;28;20061;-71
2023/06/21 09:39:33;;;;;;;11.93;6.03;;;;;;;-144.47;62.46;52764.72;5010733;28;20029;-73
2023/06/21 09:41:59;;;;;;;12.13;6.00;;;;;;;-144.47;62.38;52721.03;5013527;28;20313;-72
2023/06/21 09:44:24;;;;;;;9.75;5.55;;;;;;;-144.47;62.93;52728.97;5012859;28;20020;-74
2023/06/21 09:46:57;;;;;;;11.32;6.07;;;;;;;-144.47;61.61;52786.56;5013641;28;20036;-75
2023/06/21 09:49:27;;;;;;;11.43;5.97;;;;;;;-144.47;62.38;52758.78;5012568;28;20026;-71
2023/06/21 09:51:52;;;;;;;11.60;6.20;;;;;;;-144.47;62.33;52752.81;5011590;28;20038;-72
2023/06/21 09:54:18;;;;;;;10.23;6.20;;;;;;;-144.47;62.12;52768.69;5012445;28;20018;-72
2023/06/21 09:56:44;;;;;;;9.63;5.50;;;;;;;-144.47;61.46;52766.72;5013238;28;20022;-72
2023/06/21 09:59:19;;;;;;;9.25;5.25;;;;;;;-144.47;61.87;52756.78;5012897;28;20119;-74
2023/06/21 10:01:50;;;;;;;11.00;5.75;;;;;;;-144.47;61.59;52736.94;5012718;28;20044;-72
2023/06/21 10:04:17;;;;;;;12.82;6.55;;;;;;;-144.47;60.89;52752.81;5012897;28;20446;-71
2023/06/21 10:06:54;;;;;;;11.15;6.45;;;;;;;-144.47;60.53;52778.63;5012216;28;20111;-73
2023/06/21 10:09:19;;;;;;;8.20;5.20;;;;;;;-144.47;59.22;52780.63;5013122;28;20026;-71
2023/06/21 10:11:45;;;;;;;11.88;5.60;;;;;;;-144.47;58.63;52808.44;5012488;28;20044;-74
2023/06/21 10:14:30;;;;;;;10.48;5.30;;;;;;;-144.47;56.99;52802.47;5012316;28;20403;-71
2023/06/21 10:16:56;;;;;;;10.65;5.47;;;;;;;-144.47;55.97;52800.47;5012532;28;20120;-73
2023/06/21 10:19:23;;;;;;;12.55;5.53;;;;;;;-144.47;56.89;52798.50;5012831;28;20471;-74
2023/06/21 10:22:08;;;;;;;8.60;5.28;;;;;;;-144.47;56.89;52792.53;5010741;28;20026;-74
2023/06/21 10:24:42;;;;;;;9.02;5.20;;;;;;;-144.47;57.47;52798.50;5012632;28;20084;-72
2023/06/21 10:27:09;;;;;;;9.45;5.70;;;;;;;-144.47;55.96;52786.56;5012357;28;20026;-70
2023/06/21 10:29:37;;;;;;;13.05;5.50;;;;;;;-144.47;56.27;52792.53;5012383;28;20037;-73
2023/06/21 10:32:05;;;;;;;9.13;5.38;;;;;;;-144.47;55.46;52796.50;5012537;28;20026;-72
2023/06/21 10:34:36;;;;;;;9.00;5.03;;;;;;;-144.47;54.80;52800.47;5011934;28;20017;-72
2023/06/21 10:37:14;;;;;;;8.35;5.10;;;;;;;-144.47;53.29;52830.28;5008129;28;20022;-75
2023/06/21 10:39:41;;;;;;;10.60;5.47;;;;;;;-144.47;53.53;52804.44;5010719;28;20033;-72
2023/06/21 10:42:07;;;;;;;11.27;5.57;;;;;;;-144.47;53.83;52802.47;5012210;28;20024;-73
2023/06/21 10:44:34;;;;;;;12.25;5.35;;;;;;;-144.47;53.72;52820.34;5010618;28;20502;-73
2023/06/21 10:47:00;;;;;;;15.65;5.25;;;;;;;-144.47;54.41;52802.47;5011542;28;20029;-71
2023/06/21 10:49:27;;;;;;;10.50;5.15;;;;;;;-144.47;55.10;52794.53;5012020;28;20017;-71
2023/06/21 10:51:55;;;;;;;10.27;5.18;;;;;;;-144.47;54.78;52784.59;5011362;28;20055;-74
2023/06/21 10:54:22;;;;;;;10.13;5.57;;;;;;;-144.47;55.68;52780.63;5011237;28;20117;-74
2023/06/21 10:56:49;;;;;;;12.57;5.30;;;;;;;-144.47;55.03;52810.41;5011841;28;20259;-73
2023/06/21 10:59:17;;;;;;;9.98;4.63;;;;;;;-144.47;54.87;52780.63;5012472;28;20028;-73
2023/06/21 11:01:44;;;;;;;9.32;4.80;;;;;;;-144.47;55.42;52808.44;5011814;28;20024;-73